الصفحة الرئيسية
METAR-TAF:

METAR-TAF

مطار :

بوريرام, تايلاند

دائرة عرض: 15-13-46N, خط طول: 103-15-04E, ارتفاع: 180 متر

مراقبة الطقس الحالي

تاريخ ووقت الإصدار 6ساعات و 13 دقيقة قبل الساعة 13:00UTC
ريح 7 عقدة من الجنوب/الجنوب الغربي
درجة الحرارة 27°درجة مئوية
الرطوبة 89%
ضغط 1005 hPa
الرؤية 10 كم أو أكثر
غيوم متفرقة على ارتفاع 3000 قدم
غيوم مفككة على ارتفاع 10000 قدم

METAR: VTUO 021300Z 20007KT 9999 SCT030 BKN100 27/25 Q1005 NOSIG

زمن: 02:13 (19:13 UTC)

توقعات

تاريخ ووقت الإصدار 2ساعات و 13 دقيقة قبل الساعة 17:00UTC
التوقعات صالحة من02 الساعة 18 UTC إلى 03 الساعة 18 UTC
ريح 5 عقدة من الجنوب/الجنوب الغربي
الرؤية 10 كم أو أكثر
غيوم متفرقة على ارتفاع 3000 قدم
مؤقت
من 03 الساعة 08 UTC إلى 03 الساعة 12 UTC
ريح 15 عقدةمن اتجاهات متغيرة
الرؤية: 4500 متر
غيوم قليلة على ارتفاع 1800 قدم, مزنة ركامية.
غيوم مفككة على ارتفاع 2500 قدم
عاصفة رعدية, مطر

TAF: VTUO 021700Z 0218/0318 20005KT 9999 SCT030 TEMPO 0308/0312 VRB15KT 4500 TSRA FEW018CB BKN025

أرصاد الطقس والتوقعات من أكثر من 4000 مطار (تقارير الطقس للمطار METAR والتنبؤ بالطقس بالمطارTAF).

المحطات المتاحة هي النقط الصفراء والحمراء على الخريطة.

حرك المؤشر فوق النقطة لمعرفة اسم المحطة.

ثم انقر لمعرفة أرصاد وتوقعات الطقس.

لتغيير الخارطة: اضغط على الأزرار الخضراء مع رمز الصليب الأسود للتكبير. على الزر الأخضر مع شرطة للتصغير، أو على الأسهم الخضراء للخرائط المجاورة.


METAR-TAF: